Youyang, China
Current Conditions -  °F | °C
As of 3:00 AM on Tuesday 23 Dec 2014 (Local Time) from ZUCK Reporting Station
Haze Haze  
Wind Chill: 45°   Ceiling: Unl
Heat Index: 45°   Visibility: 1.4mi
Dew Point: 39°   Wind: 2mph
Humidity: 81%   Direction: 220°SW
Pressure: 30.18"   Gusts: NA
Location:  28.83°N, 108.77°E
Report Text: ZUCK 221900Z 22001MPS 2300 BR SCT033 07/04 Q1022 NOSIG
Loading
Personal Weather Stations






























Interactive Weather Map New forecast layout! Learn more

10-Day Weather Forecast

Advertisements
Track Severe Weather on mobile